Time;durP1;ratioP1;P1;durP2;ratioP2;P2;SDS_P1;SDS_P2;PMS_P1;PMS_P2;Temp;Humidity;BMP_temperature;BMP_pressure;BME280_temperature;BME280_humidity;BME280_pressure;Samples;Min_cycle;Max_cycle;Signal;HPM_P1;HPM_P2
2021/06/27 00:01:02;;;;;;;0.77;0.77;;;23.10;77.20;;;;;;4199757;28;20448;-71
2021/06/27 00:03:24;;;;;;;0.45;0.30;;;23.10;77.20;;;;;;4207690;28;20067;-71
2021/06/27 00:05:46;;;;;;;2.13;0.57;;;23.00;77.20;;;;;;4208179;28;20047;-71
2021/06/27 00:08:11;;;;;;;0.10;0.10;;;23.00;77.30;;;;;;4207922;28;20072;-71
2021/06/27 00:10:40;;;;;;;0.43;0.43;;;23.00;77.20;;;;;;4208052;28;20081;-71
2021/06/27 00:13:04;;;;;;;0.40;0.40;;;23.00;77.30;;;;;;4207837;28;20487;-71
2021/06/27 00:15:29;;;;;;;0.32;0.32;;;23.00;77.30;;;;;;4207914;28;20055;-71
2021/06/27 00:17:52;;;;;;;0.50;0.50;;;23.00;77.30;;;;;;4207808;28;20376;-71
2021/06/27 00:20:18;;;;;;;0.25;0.25;;;23.00;77.30;;;;;;4206788;28;20052;-71
2021/06/27 00:22:40;;;;;;;1.20;1.20;;;23.00;77.40;;;;;;4207890;28;20097;-71
2021/06/27 00:25:03;;;;;;;1.80;1.67;;;23.00;77.40;;;;;;4208040;28;20056;-71
2021/06/27 00:27:26;;;;;;;0.43;0.43;;;22.90;78.30;;;;;;4207427;28;20058;-70
2021/06/27 00:29:48;;;;;;;0.10;0.10;;;22.90;77.30;;;;;;4207862;28;20494;-70
2021/06/27 00:32:10;;;;;;;0.52;0.52;;;22.90;77.30;;;;;;4208150;28;20414;-70
2021/06/27 00:34:33;;;;;;;0.63;0.63;;;22.90;77.30;;;;;;4207784;28;20147;-71
2021/06/27 00:36:55;;;;;;;0.10;0.10;;;22.90;77.40;;;;;;4207454;28;20044;-71
2021/06/27 00:39:17;;;;;;;0.10;0.10;;;22.90;77.40;;;;;;4207818;28;20052;-71
2021/06/27 00:41:40;;;;;;;0.03;0.03;;;22.90;77.40;;;;;;4207908;28;20174;-71
2021/06/27 00:44:04;;;;;;;4.05;1.00;;;22.90;77.50;;;;;;4206164;28;20036;-71
2021/06/27 00:46:25;;;;;;;0.05;0.05;;;22.90;77.50;;;;;;4191055;28;20067;-70
2021/06/27 00:48:48;;;;;;;0.25;0.25;;;22.80;77.50;;;;;;4191225;28;20541;-71
2021/06/27 00:51:10;;;;;;;0.10;0.10;;;22.80;77.50;;;;;;4189672;28;20060;-71
2021/06/27 00:53:32;;;;;;;0.32;0.32;;;22.80;77.50;;;;;;4191049;28;20055;-71
2021/06/27 00:55:56;;;;;;;0.13;0.13;;;22.80;77.50;;;;;;4191033;28;20125;-73
2021/06/27 00:58:18;;;;;;;0.40;0.40;;;22.80;77.60;;;;;;4206351;28;20050;-72
2021/06/27 01:00:42;;;;;;;0.20;0.20;;;22.80;77.50;;;;;;4205525;28;20056;-71
2021/06/27 01:03:05;;;;;;;0.13;0.13;;;22.80;77.60;;;;;;4199741;28;20101;-72
2021/06/27 01:05:38;;;;;;;3.65;0.73;;;22.80;77.60;;;;;;4207646;28;20051;-71
2021/06/27 01:08:00;;;;;;;0.47;0.47;;;22.80;77.70;;;;;;4208631;28;20513;-74
2021/06/27 01:10:24;;;;;;;0.05;0.05;;;22.80;77.70;;;;;;4211184;28;20052;-73
2021/06/27 01:12:46;;;;;;;0.08;0.08;;;22.80;77.70;;;;;;4210182;28;20054;-73
2021/06/27 01:15:10;;;;;;;0.68;0.68;;;22.80;77.80;;;;;;4210782;28;20068;-73
2021/06/27 01:17:34;;;;;;;0.00;0.00;;;22.70;77.80;;;;;;4209973;28;20060;-72
2021/06/27 01:19:56;;;;;;;0.50;0.50;;;22.80;77.80;;;;;;4210687;28;20059;-73
2021/06/27 01:22:20;;;;;;;0.10;0.10;;;22.80;77.80;;;;;;4210743;28;20047;-72
2021/06/27 01:24:42;;;;;;;0.03;0.03;;;22.70;77.70;;;;;;4206380;28;20056;-72
2021/06/27 01:27:05;;;;;;;1.25;0.55;;;22.70;78.60;;;;;;4210666;28;20441;-72
2021/06/27 01:29:27;;;;;;;0.35;0.35;;;22.70;77.70;;;;;;4210728;28;20108;-72
2021/06/27 01:31:50;;;;;;;0.38;0.38;;;22.70;77.70;;;;;;4210365;28;20387;-72
2021/06/27 01:34:13;;;;;;;0.50;0.50;;;22.70;77.70;;;;;;4210636;28;20078;-72
2021/06/27 01:36:36;;;;;;;0.28;0.28;;;22.70;77.80;;;;;;4210273;28;20456;-72
2021/06/27 01:38:59;;;;;;;0.55;0.55;;;22.70;77.70;;;;;;4209943;28;20121;-71
2021/06/27 01:41:22;;;;;;;4.63;1.50;;;22.60;77.70;;;;;;4210365;28;20071;-72
2021/06/27 01:43:44;;;;;;;0.55;0.55;;;22.60;77.80;;;;;;4210244;28;20560;-72
2021/06/27 01:46:06;;;;;;;0.75;0.75;;;22.60;77.80;;;;;;4210327;28;20048;-72
2021/06/27 01:48:29;;;;;;;2.13;1.90;;;22.60;77.80;;;;;;4210036;28;20043;-72
2021/06/27 01:50:52;;;;;;;0.43;0.43;;;22.60;77.80;;;;;;4210313;28;20127;-72
2021/06/27 01:53:16;;;;;;;2.22;2.13;;;22.60;77.80;;;;;;4193816;28;20094;-72
2021/06/27 01:55:40;;;;;;;0.00;0.00;;;22.60;77.80;;;;;;4193987;28;20063;-72
2021/06/27 01:58:02;;;;;;;0.35;0.35;;;22.60;77.70;;;;;;4193074;28;20503;-61
2021/06/27 02:00:28;;;;;;;5.18;0.68;;;22.60;77.80;;;;;;4209096;28;20048;-72
2021/06/27 02:02:50;;;;;;;0.00;0.00;;;22.60;77.70;;;;;;4210257;28;20113;-72
2021/06/27 02:05:13;;;;;;;0.03;0.03;;;22.60;77.70;;;;;;4210383;28;20581;-73
2021/06/27 02:07:37;;;;;;;0.50;0.50;;;22.60;77.70;;;;;;4209745;28;20074;-73
2021/06/27 02:09:59;;;;;;;0.30;0.30;;;22.60;77.70;;;;;;4210093;28;20520;-73
2021/06/27 02:12:22;;;;;;;0.20;0.20;;;22.60;77.70;;;;;;4209742;28;20048;-73
2021/06/27 02:14:44;;;;;;;0.30;0.30;;;22.60;77.70;;;;;;4209667;28;20040;-73
2021/06/27 02:17:06;;;;;;;1.75;1.65;;;22.60;77.70;;;;;;4209041;28;20203;-73
2021/06/27 02:19:28;;;;;;;0.00;0.00;;;22.60;77.70;;;;;;4208805;28;20052;-73
2021/06/27 02:21:51;;;;;;;0.00;0.00;;;22.60;77.70;;;;;;4209706;28;20047;-72
2021/06/27 02:24:12;;;;;;;0.30;0.30;;;22.50;77.70;;;;;;4209357;28;20517;-72
2021/06/27 02:26:35;;;;;;;1.17;0.60;;;22.50;77.80;;;;;;4209798;28;20076;-71
2021/06/27 02:28:59;;;;;;;0.00;0.00;;;22.50;77.80;;;;;;4208187;28;20409;-72
2021/06/27 02:31:21;;;;;;;0.10;0.10;;;22.50;77.80;;;;;;4209547;28;20477;-71
2021/06/27 02:33:45;;;;;;;0.50;0.50;;;22.50;77.80;;;;;;4209646;28;20048;-71
2021/06/27 02:36:08;;;;;;;0.88;0.73;;;22.50;77.80;;;;;;4209226;28;20048;-71
2021/06/27 02:38:31;;;;;;;0.10;0.10;;;22.50;77.80;;;;;;4209361;28;20658;-72
2021/06/27 02:40:54;;;;;;;0.32;0.32;;;22.50;77.80;;;;;;4208143;28;20484;-72
2021/06/27 02:43:18;;;;;;;0.20;0.20;;;22.50;77.80;;;;;;4209401;28;20143;-71
2021/06/27 02:45:41;;;;;;;0.10;0.10;;;22.50;77.80;;;;;;4191842;28;20489;-61
2021/06/27 02:48:03;;;;;;;0.40;0.40;;;22.50;77.80;;;;;;4175985;28;20041;-73
2021/06/27 02:50:26;;;;;;;0.00;0.00;;;22.50;78.80;;;;;;4207061;28;20101;-73
2021/06/27 02:52:48;;;;;;;0.70;0.70;;;22.50;78.80;;;;;;4209346;28;20048;-73
2021/06/27 02:55:12;;;;;;;0.00;0.00;;;22.50;78.00;;;;;;4208973;28;20074;-74
2021/06/27 02:57:34;;;;;;;1.40;0.47;;;22.40;77.90;;;;;;4209361;28;20490;-72
2021/06/27 02:59:56;;;;;;;0.95;0.95;;;22.40;78.40;;;;;;4207541;28;20052;-73
2021/06/27 03:02:19;;;;;;;0.00;0.00;;;22.40;77.90;;;;;;4209263;28;20131;-72
2021/06/27 03:04:41;;;;;;;0.98;0.35;;;22.40;77.90;;;;;;4209354;28;20055;-73
2021/06/27 03:07:04;;;;;;;0.22;0.22;;;22.40;78.00;;;;;;4208858;28;20044;-73
2021/06/27 03:09:26;;;;;;;0.22;0.22;;;22.40;78.00;;;;;;4209037;28;20089;-73
2021/06/27 03:11:48;;;;;;;0.00;0.00;;;22.40;78.00;;;;;;4209366;28;20123;-73
2021/06/27 03:14:10;;;;;;;0.45;0.45;;;22.40;78.00;;;;;;4208701;28;20052;-73
2021/06/27 03:16:32;;;;;;;0.00;0.00;;;22.40;78.00;;;;;;4208641;28;20056;-72
2021/06/27 03:18:56;;;;;;;0.00;0.00;;;22.40;78.00;;;;;;4208956;28;20043;-73
2021/06/27 03:21:18;;;;;;;0.00;0.00;;;22.40;78.10;;;;;;4208440;28;20595;-72
2021/06/27 03:23:40;;;;;;;1.45;1.35;;;22.40;78.00;;;;;;4209113;28;20056;-72
2021/06/27 03:26:03;;;;;;;0.05;0.05;;;22.40;78.00;;;;;;4208697;28;20051;-73
2021/06/27 03:28:26;;;;;;;0.30;0.30;;;22.40;78.00;;;;;;4208100;28;20056;-73
2021/06/27 03:30:49;;;;;;;0.55;0.50;;;22.40;78.00;;;;;;4208084;28;20585;-73
2021/06/27 03:33:11;;;;;;;0.52;0.50;;;22.40;78.00;;;;;;4207476;28;20060;-72
2021/06/27 03:35:34;;;;;;;0.00;0.00;;;22.40;78.00;;;;;;4207932;28;20074;-72
2021/06/27 03:38:03;;;;;;;0.03;0.03;;;22.40;78.00;;;;;;4208729;28;20414;-72
2021/06/27 03:40:25;;;;;;;0.10;0.10;;;22.30;78.00;;;;;;4208244;28;20068;-74
2021/06/27 03:42:48;;;;;;;0.38;0.38;;;22.30;78.00;;;;;;4208144;28;20048;-73
2021/06/27 03:45:12;;;;;;;0.40;0.35;;;22.30;78.00;;;;;;4208369;28;20044;-73
2021/06/27 03:47:35;;;;;;;0.00;0.00;;;22.30;78.00;;;;;;4208146;28;20052;-73
2021/06/27 03:49:57;;;;;;;0.70;0.70;;;22.30;78.00;;;;;;4208266;28;20422;-73
2021/06/27 03:52:21;;;;;;;0.30;0.30;;;22.30;78.10;;;;;;4191660;28;20834;-73
2021/06/27 03:54:43;;;;;;;0.10;0.10;;;22.30;78.00;;;;;;4196844;28;20056;-73
2021/06/27 03:57:06;;;;;;;0.13;0.13;;;22.30;78.10;;;;;;4208195;28;20048;-72
2021/06/27 03:59:28;;;;;;;1.65;1.27;;;22.30;78.10;;;;;;4208091;28;20044;-72
2021/06/27 04:01:51;;;;;;;0.10;0.10;;;22.30;78.10;;;;;;4207749;28;20047;-72
2021/06/27 04:04:13;;;;;;;0.28;0.28;;;22.30;78.20;;;;;;4208346;28;20760;-75
2021/06/27 04:06:35;;;;;;;0.55;0.55;;;22.30;78.30;;;;;;4208281;28;20463;-72
2021/06/27 04:08:59;;;;;;;0.10;0.10;;;22.30;78.30;;;;;;4208306;28;20839;-72
2021/06/27 04:11:21;;;;;;;1.50;1.50;;;22.30;78.30;;;;;;4208425;28;20048;-72
2021/06/27 04:13:43;;;;;;;0.30;0.30;;;22.30;78.30;;;;;;4207781;28;20040;-72
2021/06/27 04:16:06;;;;;;;0.63;0.63;;;22.30;78.40;;;;;;4207974;28;20044;-73
2021/06/27 04:18:29;;;;;;;0.08;0.08;;;22.30;78.40;;;;;;4208141;28;20079;-72
2021/06/27 04:20:52;;;;;;;2.00;1.55;;;22.30;78.40;;;;;;4207561;28;20568;-71
2021/06/27 04:23:15;;;;;;;0.00;0.00;;;22.30;78.40;;;;;;4208226;28;20059;-71
2021/06/27 04:25:38;;;;;;;0.10;0.10;;;22.30;78.40;;;;;;4203610;28;20044;-71
2021/06/27 04:28:00;;;;;;;0.20;0.20;;;22.30;78.50;;;;;;4208450;28;20076;-71
2021/06/27 04:30:22;;;;;;;0.45;0.38;;;22.30;78.50;;;;;;4207432;28;20424;-70
2021/06/27 04:32:44;;;;;;;1.55;1.42;;;22.30;78.40;;;;;;4207985;28;20486;-72
2021/06/27 04:35:08;;;;;;;0.00;0.00;;;22.30;78.40;;;;;;4207444;28;20055;-72
2021/06/27 04:37:32;;;;;;;0.15;0.15;;;22.30;78.40;;;;;;4207740;28;20048;-72
2021/06/27 04:39:54;;;;;;;0.08;0.08;;;22.30;78.30;;;;;;4207940;28;20506;-75
2021/06/27 04:42:17;;;;;;;0.17;0.17;;;22.30;78.70;;;;;;4207160;28;20040;-75
2021/06/27 04:44:40;;;;;;;0.47;0.47;;;22.30;78.50;;;;;;4207342;28;20055;-71
2021/06/27 04:47:02;;;;;;;1.80;1.65;;;22.40;78.30;;;;;;4207735;28;20494;-76
2021/06/27 04:49:25;;;;;;;1.08;0.90;;;22.40;78.30;;;;;;4207739;28;20048;-76
2021/06/27 04:51:47;;;;;;;0.32;0.32;;;22.40;79.00;;;;;;4191329;28;20786;-76
2021/06/27 04:54:09;;;;;;;0.05;0.05;;;22.40;78.10;;;;;;4191307;28;20105;-76
2021/06/27 04:56:31;;;;;;;0.40;0.40;;;22.40;78.00;;;;;;4191267;28;20487;-76
2021/06/27 04:58:54;;;;;;;0.10;0.10;;;22.40;77.90;;;;;;4191092;28;20426;-76
2021/06/27 05:01:16;;;;;;;0.47;0.47;;;22.40;77.90;;;;;;4203658;28;20074;-73
2021/06/27 05:03:38;;;;;;;1.15;0.63;;;22.40;77.80;;;;;;4207386;28;20568;-74
2021/06/27 05:06:00;;;;;;;0.70;0.70;;;22.40;77.80;;;;;;4207349;28;20048;-74
2021/06/27 05:08:25;;;;;;;0.80;0.80;;;22.40;77.70;;;;;;4207742;28;20090;-73
2021/06/27 05:10:47;;;;;;;0.00;0.00;;;22.40;77.80;;;;;;4207298;28;20094;-73
2021/06/27 05:13:12;;;;;;;0.00;0.00;;;22.40;77.80;;;;;;4190637;28;20067;-70
2021/06/27 05:15:35;;;;;;;0.10;0.10;;;22.40;77.80;;;;;;4190896;28;20049;-74
2021/06/27 05:17:58;;;;;;;0.00;0.00;;;22.40;77.80;;;;;;4191026;28;20052;-73
2021/06/27 05:20:20;;;;;;;1.55;1.17;;;22.40;77.90;;;;;;4196690;28;20098;-74
2021/06/27 05:22:42;;;;;;;0.35;0.35;;;22.40;77.70;;;;;;4207685;28;20048;-75
2021/06/27 05:25:04;;;;;;;0.10;0.10;;;22.50;77.60;;;;;;4207608;28;20492;-75
2021/06/27 05:27:27;;;;;;;0.43;0.43;;;22.60;77.30;;;;;;4207492;28;20494;-75
2021/06/27 05:29:49;;;;;;;3.05;2.35;;;22.70;76.80;;;;;;4205776;28;20040;-76
2021/06/27 05:32:12;;;;;;;0.43;0.43;;;22.80;76.40;;;;;;4205161;28;20047;-75
2021/06/27 05:34:34;;;;;;;1.55;0.25;;;22.80;76.20;;;;;;4207472;28;20056;-75
2021/06/27 05:36:57;;;;;;;0.30;0.30;;;22.90;75.80;;;;;;4190562;28;20048;-74
2021/06/27 05:39:20;;;;;;;0.00;0.00;;;22.90;75.60;;;;;;4190552;28;20048;-75
2021/06/27 05:41:43;;;;;;;0.30;0.30;;;22.90;75.50;;;;;;4190307;28;20619;-75
2021/06/27 05:44:06;;;;;;;0.70;0.70;;;22.90;75.50;;;;;;4206669;28;20040;-71
2021/06/27 05:46:28;;;;;;;1.67;1.55;;;22.90;75.40;;;;;;4207094;28;20074;-76
2021/06/27 05:48:52;;;;;;;0.20;0.20;;;22.90;76.20;;;;;;4206981;28;20418;-73
2021/06/27 05:51:14;;;;;;;0.55;0.55;;;22.90;75.90;;;;;;4205756;28;20059;-71
2021/06/27 05:53:36;;;;;;;0.25;0.25;;;22.90;75.90;;;;;;4206779;28;20047;-73
2021/06/27 05:56:10;;;;;;;0.10;0.10;;;22.90;75.90;;;;;;4210132;28;20048;-74
2021/06/27 05:58:32;;;;;;;0.38;0.38;;;22.90;76.00;;;;;;4209690;28;20056;-73
2021/06/27 06:00:54;;;;;;;0.03;0.03;;;22.80;76.00;;;;;;4209749;28;20043;-70
2021/06/27 06:03:16;;;;;;;0.10;0.10;;;22.80;76.20;;;;;;4209910;28;20093;-74
2021/06/27 06:05:40;;;;;;;0.47;0.45;;;22.80;76.40;;;;;;4209769;28;20048;-74
2021/06/27 06:08:02;;;;;;;1.02;0.45;;;22.80;76.50;;;;;;4210168;28;20052;-75
2021/06/27 06:10:24;;;;;;;0.40;0.40;;;22.70;76.50;;;;;;4198000;28;20067;-76
2021/06/27 06:12:46;;;;;;;0.52;0.52;;;22.70;76.60;;;;;;4206151;28;20067;-75
2021/06/27 06:15:10;;;;;;;0.00;0.00;;;22.70;76.70;;;;;;4209727;28;20047;-74
2021/06/27 06:17:32;;;;;;;0.00;0.00;;;22.70;76.70;;;;;;4209796;28;20062;-73
2021/06/27 06:19:54;;;;;;;0.57;0.57;;;22.70;76.80;;;;;;4191994;28;20151;-73
2021/06/27 06:22:19;;;;;;;0.45;0.45;;;22.70;76.70;;;;;;4176165;28;20126;-71
2021/06/27 06:24:41;;;;;;;1.35;1.20;;;22.80;76.50;;;;;;4192798;28;20075;-72
2021/06/27 06:27:03;;;;;;;0.30;0.30;;;22.80;76.50;;;;;;4178683;28;20433;-73
2021/06/27 06:29:26;;;;;;;2.47;1.65;;;22.80;76.30;;;;;;4209723;28;20076;-72
2021/06/27 06:31:47;;;;;;;0.20;0.20;;;22.90;76.70;;;;;;4197213;28;20048;-72
2021/06/27 06:34:09;;;;;;;0.50;0.50;;;22.90;77.50;;;;;;4209380;28;20036;-71
2021/06/27 06:36:33;;;;;;;0.75;0.75;;;22.90;79.20;;;;;;4206485;28;20059;-71
2021/06/27 06:38:57;;;;;;;0.17;0.17;;;22.90;79.00;;;;;;4209391;28;20568;-72
2021/06/27 06:41:20;;;;;;;0.10;0.10;;;22.90;78.60;;;;;;4206544;28;20118;-71
2021/06/27 06:43:42;;;;;;;0.65;0.65;;;23.00;78.30;;;;;;4211633;28;20077;-71
2021/06/27 06:46:04;;;;;;;0.20;0.20;;;23.00;77.80;;;;;;4209291;28;20052;-71
2021/06/27 06:48:26;;;;;;;0.20;0.20;;;23.10;77.40;;;;;;4202771;28;20482;-71
2021/06/27 06:50:48;;;;;;;0.40;0.40;;;23.20;77.10;;;;;;4197840;28;20564;-72
2021/06/27 06:53:10;;;;;;;0.00;0.00;;;23.20;76.80;;;;;;4192628;28;20048;-71
2021/06/27 06:55:33;;;;;;;0.35;0.35;;;23.30;76.50;;;;;;4175461;28;20099;-71
2021/06/27 06:57:57;;;;;;;0.20;0.20;;;23.30;76.10;;;;;;4203244;28;20052;-72
2021/06/27 07:00:19;;;;;;;0.47;0.47;;;23.40;75.80;;;;;;4208395;28;20064;-71
2021/06/27 07:02:41;;;;;;;0.05;0.05;;;23.50;75.50;;;;;;4208552;28;20058;-70
2021/06/27 07:05:04;;;;;;;0.47;0.47;;;23.50;75.10;;;;;;4193408;28;20052;-72
2021/06/27 07:07:26;;;;;;;0.28;0.28;;;23.50;75.00;;;;;;4192019;28;20036;-72
2021/06/27 07:09:48;;;;;;;0.98;0.65;;;23.50;74.90;;;;;;4191380;28;20052;-72
2021/06/27 07:12:12;;;;;;;0.25;0.25;;;23.50;74.70;;;;;;4192038;28;20045;-72
2021/06/27 07:14:35;;;;;;;0.10;0.10;;;23.50;74.60;;;;;;4201500;28;20814;-71
2021/06/27 07:16:57;;;;;;;0.30;0.30;;;23.60;74.40;;;;;;4202789;28;20036;-72
2021/06/27 07:19:19;;;;;;;0.45;0.45;;;23.60;74.30;;;;;;4207054;28;20052;-72
2021/06/27 07:21:43;;;;;;;0.50;0.50;;;23.60;74.30;;;;;;4208207;28;20056;-73
2021/06/27 07:24:06;;;;;;;0.08;0.08;;;23.60;74.20;;;;;;4208639;28;20086;-72
2021/06/27 07:26:28;;;;;;;0.10;0.10;;;23.60;74.20;;;;;;4208280;28;20048;-72
2021/06/27 07:28:52;;;;;;;0.82;0.82;;;23.60;74.30;;;;;;4207852;28;20056;-72
2021/06/27 07:31:14;;;;;;;0.00;0.00;;;23.50;74.30;;;;;;4208557;28;20043;-72
2021/06/27 07:33:36;;;;;;;1.45;1.45;;;23.50;74.40;;;;;;4207193;28;20056;-73
2021/06/27 07:35:58;;;;;;;0.00;0.00;;;23.50;74.50;;;;;;4207635;28;20056;-74
2021/06/27 07:38:20;;;;;;;0.80;0.80;;;23.50;74.60;;;;;;4197584;28;20490;-75
2021/06/27 07:40:43;;;;;;;1.20;0.85;;;23.50;75.60;;;;;;4208541;28;20563;-73
2021/06/27 07:43:05;;;;;;;0.65;0.65;;;23.50;74.60;;;;;;4195085;28;20118;-73
2021/06/27 07:45:28;;;;;;;2.45;2.25;;;23.50;74.60;;;;;;4197944;28;20046;-74
2021/06/27 07:47:50;;;;;;;0.85;0.85;;;23.50;74.60;;;;;;4205119;28;20052;-73
2021/06/27 07:50:13;;;;;;;0.57;0.57;;;23.50;74.60;;;;;;4207827;28;20047;-73
2021/06/27 07:52:37;;;;;;;0.90;0.90;;;23.60;74.60;;;;;;4208468;28;20059;-73
2021/06/27 07:55:00;;;;;;;0.25;0.25;;;23.50;74.60;;;;;;4207523;28;20068;-72
2021/06/27 07:57:22;;;;;;;1.52;1.17;;;23.60;74.80;;;;;;4205341;28;20044;-73
2021/06/27 07:59:44;;;;;;;0.50;0.50;;;23.50;74.60;;;;;;4207846;28;20160;-73
2021/06/27 08:02:08;;;;;;;1.58;1.50;;;23.60;74.70;;;;;;4208162;28;20482;-73
2021/06/27 08:04:30;;;;;;;1.60;1.50;;;23.50;74.80;;;;;;4208087;28;20047;-73
2021/06/27 08:06:53;;;;;;;0.77;0.77;;;23.60;74.80;;;;;;4208338;28;20051;-73
2021/06/27 08:09:15;;;;;;;1.05;1.05;;;23.60;74.90;;;;;;4208164;28;20138;-74
2021/06/27 08:11:37;;;;;;;0.00;0.00;;;23.60;74.90;;;;;;4207530;28;20572;-74
2021/06/27 08:13:59;;;;;;;0.95;0.90;;;23.60;74.80;;;;;;4208041;28;20048;-75
2021/06/27 08:16:21;;;;;;;1.58;1.55;;;23.60;74.70;;;;;;4208102;28;20105;-74
2021/06/27 08:18:45;;;;;;;0.30;0.30;;;23.60;74.70;;;;;;4207069;28;20052;-74
2021/06/27 08:21:07;;;;;;;0.40;0.40;;;23.70;74.60;;;;;;4189841;28;20052;-73
2021/06/27 08:23:29;;;;;;;0.30;0.30;;;23.70;74.70;;;;;;4191044;28;20051;-74
2021/06/27 08:25:51;;;;;;;0.20;0.20;;;23.70;74.70;;;;;;4191095;28;20486;-73
2021/06/27 08:28:13;;;;;;;0.20;0.20;;;23.70;74.60;;;;;;4191259;28;20048;-74
2021/06/27 08:30:36;;;;;;;1.27;1.27;;;23.70;74.70;;;;;;4204743;28;20060;-72
2021/06/27 08:32:59;;;;;;;3.92;2.00;;;23.80;74.70;;;;;;4207887;28;20810;-74
2021/06/27 08:35:23;;;;;;;0.32;0.32;;;23.70;74.60;;;;;;4207749;28;20051;-74
2021/06/27 08:37:46;;;;;;;0.30;0.30;;;23.80;74.60;;;;;;4207501;28;20055;-73
2021/06/27 08:40:10;;;;;;;0.68;0.63;;;23.80;75.50;;;;;;4207789;28;20122;-74
2021/06/27 08:42:33;;;;;;;0.43;0.43;;;23.80;74.40;;;;;;4207705;28;20066;-74
2021/06/27 08:44:57;;;;;;;0.70;0.70;;;23.80;74.30;;;;;;4206574;28;20508;-73
2021/06/27 08:47:19;;;;;;;0.93;0.93;;;23.90;74.40;;;;;;4207450;28;20534;-73
2021/06/27 08:49:43;;;;;;;0.30;0.30;;;23.90;74.30;;;;;;4206961;28;20508;-74
2021/06/27 08:52:13;;;;;;;0.68;0.68;;;23.90;74.20;;;;;;4207666;28;20139;-74
2021/06/27 08:54:35;;;;;;;0.47;0.47;;;24.00;74.10;;;;;;4207372;28;20052;-72
2021/06/27 08:56:57;;;;;;;34.67;1.35;;;24.00;74.00;;;;;;4196414;28;20060;-74
2021/06/27 08:59:19;;;;;;;7.60;0.47;;;24.00;73.90;;;;;;4176345;28;20067;-73
2021/06/27 09:01:42;;;;;;;0.38;0.38;;;24.00;73.80;;;;;;4190271;28;20125;-72
2021/06/27 09:04:04;;;;;;;1.98;1.45;;;24.10;73.80;;;;;;4177604;28;20118;-72
2021/06/27 09:06:27;;;;;;;0.17;0.17;;;24.10;73.70;;;;;;4190849;28;20052;-73
2021/06/27 09:09:09;;;;;;;3.70;1.38;;;24.10;73.80;;;;;;4190496;28;20044;-73
2021/06/27 09:11:31;;;;;;;0.55;0.55;;;24.10;73.80;;;;;;4193037;28;20052;-73
2021/06/27 09:13:54;;;;;;;1.20;0.75;;;24.10;73.70;;;;;;4190826;28;20052;-73
2021/06/27 09:16:23;;;;;;;0.47;0.47;;;24.10;73.60;;;;;;4190509;28;20114;-74
2021/06/27 09:18:46;;;;;;;3.10;1.42;;;24.10;73.50;;;;;;4190639;28;20110;-72
2021/06/27 09:21:08;;;;;;;0.43;0.43;;;24.10;73.60;;;;;;4190643;28;20044;-73
2021/06/27 09:23:37;;;;;;;0.35;0.35;;;24.10;73.50;;;;;;4190616;28;20051;-72
2021/06/27 09:26:00;;;;;;;1.00;0.98;;;24.10;73.60;;;;;;4190277;28;20049;-71
2021/06/27 09:28:23;;;;;;;0.13;0.13;;;24.20;73.60;;;;;;4190946;28;20094;-72
2021/06/27 09:30:48;;;;;;;3.42;0.88;;;24.20;73.50;;;;;;4207903;28;20075;-73
2021/06/27 09:33:11;;;;;;;0.95;0.95;;;24.20;73.50;;;;;;4210093;28;21156;-73
2021/06/27 09:35:41;;;;;;;0.32;0.32;;;24.20;73.40;;;;;;4209085;28;20059;-72
2021/06/27 09:38:28;;;;;;;0.15;0.15;;;24.20;73.40;;;;;;4191858;28;20101;-73
2021/06/27 09:40:51;;;;;;;0.25;0.25;;;24.20;73.30;;;;;;4204242;28;20059;-72
2021/06/27 09:43:15;;;;;;;0.10;0.10;;;24.30;73.30;;;;;;4210207;28;20051;-72
2021/06/27 09:45:45;;;;;;;1.13;0.55;;;24.20;73.20;;;;;;4210458;28;20056;-73
2021/06/27 09:48:09;;;;;;;0.68;0.68;;;24.30;73.20;;;;;;4209884;28;20043;-72
2021/06/27 09:50:31;;;;;;;1.17;1.17;;;24.20;73.10;;;;;;4209879;28;20159;-72
2021/06/27 09:52:57;;;;;;;0.43;0.43;;;24.30;73.20;;;;;;4210394;28;20056;-72
2021/06/27 09:55:19;;;;;;;0.75;0.65;;;24.30;73.10;;;;;;4209756;28;20044;-72
2021/06/27 09:57:42;;;;;;;0.20;0.20;;;24.30;73.00;;;;;;4209627;28;20119;-72
2021/06/27 10:00:32;;;;;;;0.45;0.45;;;24.30;72.90;;;;;;4209992;28;20052;-73
2021/06/27 10:02:59;;;;;;;0.70;0.70;;;24.30;72.80;;;;;;4208331;28;20076;-73
2021/06/27 10:05:25;;;;;;;0.43;0.43;;;24.40;72.80;;;;;;4209093;28;20127;-73
2021/06/27 10:07:47;;;;;;;0.00;0.00;;;24.40;72.70;;;;;;4209482;28;20048;-73
2021/06/27 10:10:19;;;;;;;0.25;0.25;;;24.40;72.60;;;;;;4209950;28;20048;-72
2021/06/27 10:12:42;;;;;;;2.00;0.77;;;24.40;72.70;;;;;;4209434;28;20040;-72
2021/06/27 10:15:08;;;;;;;1.08;1.02;;;24.40;72.80;;;;;;4208652;28;20127;-72
2021/06/27 10:17:30;;;;;;;0.20;0.20;;;24.40;72.80;;;;;;4209860;28;20127;-72
2021/06/27 10:19:53;;;;;;;0.40;0.40;;;24.30;72.80;;;;;;4209568;28;20494;-72
2021/06/27 10:22:15;;;;;;;0.03;0.03;;;24.30;72.70;;;;;;4209523;28;20078;-73
2021/06/27 10:24:38;;;;;;;0.20;0.20;;;24.30;72.80;;;;;;4209342;28;20055;-72
2021/06/27 10:27:01;;;;;;;1.65;1.08;;;24.30;72.70;;;;;;4197588;28;20134;-72
2021/06/27 10:29:24;;;;;;;0.00;0.00;;;24.40;72.80;;;;;;4225768;28;20039;-72
2021/06/27 10:31:49;;;;;;;0.73;0.73;;;24.40;72.80;;;;;;4225840;28;20051;-72
2021/06/27 10:34:11;;;;;;;0.10;0.10;;;24.40;72.70;;;;;;4195397;28;20453;-63
2021/06/27 10:36:36;;;;;;;0.55;0.55;;;24.40;72.80;;;;;;4175746;28;20140;-72
2021/06/27 10:39:00;;;;;;;0.03;0.03;;;24.40;72.80;;;;;;4176111;28;20053;-72
2021/06/27 10:41:50;;;;;;;0.22;0.22;;;24.40;72.80;;;;;;4186964;28;20135;-68
2021/06/27 10:44:13;;;;;;;0.68;0.68;;;24.40;72.70;;;;;;4192315;28;20044;-71
2021/06/27 10:46:40;;;;;;;0.28;0.28;;;24.40;72.70;;;;;;4192180;28;20048;-72
2021/06/27 10:49:04;;;;;;;0.50;0.50;;;24.40;72.80;;;;;;4208866;28;20504;-71
2021/06/27 10:51:59;;;;;;;1.38;1.38;;;24.40;73.70;;;;;;4225663;28;20531;-71
2021/06/27 10:54:21;;;;;;;0.88;0.75;;;24.40;72.70;;;;;;4225565;28;20115;-72
2021/06/27 10:57:00;;;;;;;0.00;0.00;;;24.50;72.70;;;;;;4207858;28;20076;-72
2021/06/27 10:59:56;;;;;;;0.63;0.63;;;24.50;72.60;;;;;;4193048;28;20048;-71
2021/06/27 11:02:20;;;;;;;0.45;0.45;;;24.50;72.50;;;;;;4208548;28;20044;-72
2021/06/27 11:04:44;;;;;;;0.30;0.30;;;24.50;72.50;;;;;;4209184;28;20486;-72
2021/06/27 11:07:06;;;;;;;0.38;0.38;;;24.50;72.40;;;;;;4208860;28;20127;-71
2021/06/27 11:09:29;;;;;;;0.32;0.32;;;24.50;72.40;;;;;;4209085;28;20478;-72
2021/06/27 11:11:53;;;;;;;0.00;0.00;;;24.50;72.40;;;;;;4208971;28;20424;-72
2021/06/27 11:14:17;;;;;;;0.52;0.52;;;24.60;72.40;;;;;;4208619;28;20070;-72
2021/06/27 11:16:59;;;;;;;0.43;0.43;;;24.60;72.10;;;;;;4209124;28;21136;-71
2021/06/27 11:19:26;;;;;;;1.85;0.28;;;24.60;72.00;;;;;;4208602;28;20521;-71
2021/06/27 11:21:49;;;;;;;0.05;0.05;;;24.60;71.80;;;;;;4177572;28;20049;-71
2021/06/27 11:24:11;;;;;;;0.25;0.25;;;24.70;71.80;;;;;;4208712;28;20448;-71
2021/06/27 11:26:55;;;;;;;0.57;0.57;;;24.70;71.60;;;;;;4208654;28;20056;-71
2021/06/27 11:29:43;;;;;;;0.85;0.75;;;24.70;71.50;;;;;;4208480;28;20405;-71
2021/06/27 11:32:45;;;;;;;9.85;1.45;;;24.80;71.50;;;;;;4208436;28;20130;-72
2021/06/27 11:35:08;;;;;;;0.05;0.05;;;24.80;71.50;;;;;;4208100;28;20043;-72
2021/06/27 11:37:48;;;;;;;0.32;0.32;;;24.80;71.30;;;;;;4208059;28;20044;-72
2021/06/27 11:40:11;;;;;;;0.00;0.00;;;24.80;71.20;;;;;;4207651;28;20563;-71
2021/06/27 11:42:49;;;;;;;0.47;0.47;;;24.80;71.00;;;;;;4206785;28;20083;-71
2021/06/27 11:45:36;;;;;;;0.28;0.28;;;24.90;70.90;;;;;;4208474;28;20048;-72
2021/06/27 11:48:00;;;;;;;1.23;1.20;;;25.00;71.70;;;;;;4208132;28;20048;-72
2021/06/27 11:50:25;;;;;;;0.38;0.38;;;25.00;70.70;;;;;;4207318;28;20055;-72
2021/06/27 11:52:53;;;;;;;0.10;0.10;;;25.00;70.50;;;;;;4206395;28;20064;-65
2021/06/27 11:55:16;;;;;;;0.45;0.45;;;25.00;70.40;;;;;;4208125;28;20498;-72
2021/06/27 11:57:39;;;;;;;1.00;1.00;;;25.00;70.30;;;;;;4207956;28;20044;-72
2021/06/27 12:00:01;;;;;;;0.65;0.65;;;25.10;70.30;;;;;;4208401;28;20135;-72
2021/06/27 12:02:30;;;;;;;0.63;0.63;;;25.10;70.20;;;;;;4207996;28;20080;-72
2021/06/27 12:04:54;;;;;;;0.30;0.30;;;25.10;70.00;;;;;;4207601;28;20055;-72
2021/06/27 12:07:35;;;;;;;0.00;0.00;;;25.10;69.90;;;;;;4206979;28;20460;-72
2021/06/27 12:10:01;;;;;;;0.20;0.20;;;25.20;69.80;;;;;;4190275;28;20060;-71
2021/06/27 12:12:41;;;;;;;1.45;1.27;;;25.20;69.70;;;;;;4190972;28;20052;-70
2021/06/27 12:15:06;;;;;;;0.20;0.20;;;25.20;69.70;;;;;;4204903;28;20087;-72
2021/06/27 12:17:28;;;;;;;2.72;0.47;;;25.20;69.70;;;;;;4207037;28;20462;-72
2021/06/27 12:19:53;;;;;;;0.13;0.13;;;25.20;69.80;;;;;;4206929;28;20048;-72
2021/06/27 12:22:16;;;;;;;0.10;0.10;;;25.20;69.80;;;;;;4186391;28;20050;-72
2021/06/27 12:24:38;;;;;;;0.10;0.10;;;25.20;69.80;;;;;;4190392;28;20517;-72
2021/06/27 12:27:11;;;;;;;2.45;0.50;;;25.20;69.80;;;;;;4174805;28;20049;-73
2021/06/27 12:29:34;;;;;;;0.55;0.55;;;25.20;69.70;;;;;;4190304;28;20052;-72
2021/06/27 12:31:56;;;;;;;0.30;0.30;;;25.20;69.70;;;;;;4188249;28;20410;-72